sensor_id;sensor_type;location;lat;lon;timestamp;P1;durP1;ratioP1;P2;durP2;ratioP2
23732;SDS011;12047;53.450;-2.286;2022-10-16T00:00:09;17.65;;;3.33;;
23732;SDS011;12047;53.450;-2.286;2022-10-16T00:05:10;19.63;;;2.90;;
23732;SDS011;12047;53.450;-2.286;2022-10-16T00:10:11;18.92;;;2.67;;
23732;SDS011;12047;53.450;-2.286;2022-10-16T00:15:12;19.75;;;2.50;;
23732;SDS011;12047;53.450;-2.286;2022-10-16T00:20:13;23.35;;;3.15;;
23732;SDS011;12047;53.450;-2.286;2022-10-16T00:25:14;12.93;;;2.08;;
23732;SDS011;12047;53.450;-2.286;2022-10-16T00:30:14;15.98;;;2.22;;
23732;SDS011;12047;53.450;-2.286;2022-10-16T00:35:15;16.70;;;2.40;;
23732;SDS011;12047;53.450;-2.286;2022-10-16T00:40:15;20.48;;;2.53;;
23732;SDS011;12047;53.450;-2.286;2022-10-16T00:45:16;17.48;;;2.38;;
23732;SDS011;12047;53.450;-2.286;2022-10-16T00:50:24;19.00;;;2.60;;
23732;SDS011;12047;53.450;-2.286;2022-10-16T00:55:31;22.52;;;2.88;;
23732;SDS011;12047;53.450;-2.286;2022-10-16T01:00:32;19.88;;;2.28;;
23732;SDS011;12047;53.450;-2.286;2022-10-16T01:05:39;21.08;;;2.90;;
23732;SDS011;12047;53.450;-2.286;2022-10-16T01:10:50;19.70;;;2.33;;
23732;SDS011;12047;53.450;-2.286;2022-10-16T01:16:02;18.33;;;2.40;;
23732;SDS011;12047;53.450;-2.286;2022-10-16T01:21:24;16.60;;;3.40;;
23732;SDS011;12047;53.450;-2.286;2022-10-16T01:31:50;21.20;;;3.05;;
23732;SDS011;12047;53.450;-2.286;2022-10-16T01:36:57;17.07;;;2.23;;
23732;SDS011;12047;53.450;-2.286;2022-10-16T01:42:09;24.17;;;2.88;;
23732;SDS011;12047;53.450;-2.286;2022-10-16T01:47:13;19.00;;;2.67;;
23732;SDS011;12047;53.450;-2.286;2022-10-16T01:52:16;19.58;;;3.50;;
23732;SDS011;12047;53.450;-2.286;2022-10-16T01:57:20;15.48;;;2.47;;
23732;SDS011;12047;53.450;-2.286;2022-10-16T02:02:22;9.50;;;1.90;;
23732;SDS011;12047;53.450;-2.286;2022-10-16T02:07:24;13.57;;;1.92;;
23732;SDS011;12047;53.450;-2.286;2022-10-16T02:12:28;13.13;;;1.65;;
23732;SDS011;12047;53.450;-2.286;2022-10-16T02:17:32;13.30;;;1.83;;
23732;SDS011;12047;53.450;-2.286;2022-10-16T02:22:37;7.55;;;1.35;;
23732;SDS011;12047;53.450;-2.286;2022-10-16T02:27:54;9.68;;;1.70;;
23732;SDS011;12047;53.450;-2.286;2022-10-16T02:32:58;9.80;;;1.58;;
23732;SDS011;12047;53.450;-2.286;2022-10-16T02:38:00;7.20;;;1.83;;
23732;SDS011;12047;53.450;-2.286;2022-10-16T02:43:02;9.63;;;1.50;;
23732;SDS011;12047;53.450;-2.286;2022-10-16T02:48:04;14.73;;;1.90;;
23732;SDS011;12047;53.450;-2.286;2022-10-16T02:53:05;14.38;;;1.95;;
23732;SDS011;12047;53.450;-2.286;2022-10-16T02:58:06;11.50;;;1.73;;
23732;SDS011;12047;53.450;-2.286;2022-10-16T03:03:06;9.10;;;1.52;;
23732;SDS011;12047;53.450;-2.286;2022-10-16T03:08:07;10.45;;;1.38;;
23732;SDS011;12047;53.450;-2.286;2022-10-16T03:13:07;9.70;;;1.58;;
23732;SDS011;12047;53.450;-2.286;2022-10-16T03:18:07;9.00;;;1.50;;
23732;SDS011;12047;53.450;-2.286;2022-10-16T03:23:08;8.20;;;1.40;;
23732;SDS011;12047;53.450;-2.286;2022-10-16T03:28:09;6.45;;;1.15;;
23732;SDS011;12047;53.450;-2.286;2022-10-16T03:33:09;7.95;;;1.20;;
23732;SDS011;12047;53.450;-2.286;2022-10-16T03:38:10;7.70;;;1.27;;
23732;SDS011;12047;53.450;-2.286;2022-10-16T03:43:11;5.22;;;1.10;;
23732;SDS011;12047;53.450;-2.286;2022-10-16T03:48:11;6.05;;;1.00;;
23732;SDS011;12047;53.450;-2.286;2022-10-16T03:53:12;7.88;;;1.00;;
23732;SDS011;12047;53.450;-2.286;2022-10-16T03:58:12;5.45;;;0.98;;
23732;SDS011;12047;53.450;-2.286;2022-10-16T04:03:14;5.80;;;1.17;;
23732;SDS011;12047;53.450;-2.286;2022-10-16T04:08:14;5.43;;;0.90;;
23732;SDS011;12047;53.450;-2.286;2022-10-16T04:13:15;8.23;;;1.23;;
23732;SDS011;12047;53.450;-2.286;2022-10-16T04:18:15;4.43;;;1.00;;
23732;SDS011;12047;53.450;-2.286;2022-10-16T04:23:16;12.43;;;1.15;;
23732;SDS011;12047;53.450;-2.286;2022-10-16T04:28:16;4.35;;;0.80;;
23732;SDS011;12047;53.450;-2.286;2022-10-16T04:33:17;8.80;;;1.38;;
23732;SDS011;12047;53.450;-2.286;2022-10-16T04:38:17;9.25;;;1.75;;
23732;SDS011;12047;53.450;-2.286;2022-10-16T04:43:18;6.13;;;1.20;;
23732;SDS011;12047;53.450;-2.286;2022-10-16T04:48:19;7.45;;;1.60;;
23732;SDS011;12047;53.450;-2.286;2022-10-16T04:53:19;6.93;;;1.55;;
23732;SDS011;12047;53.450;-2.286;2022-10-16T04:58:20;11.85;;;1.67;;
23732;SDS011;12047;53.450;-2.286;2022-10-16T05:03:20;6.95;;;1.77;;
23732;SDS011;12047;53.450;-2.286;2022-10-16T05:08:21;8.82;;;1.48;;
23732;SDS011;12047;53.450;-2.286;2022-10-16T05:13:22;7.95;;;1.63;;
23732;SDS011;12047;53.450;-2.286;2022-10-16T05:18:23;10.55;;;1.23;;
23732;SDS011;12047;53.450;-2.286;2022-10-16T05:23:23;8.27;;;1.33;;
23732;SDS011;12047;53.450;-2.286;2022-10-16T05:28:24;6.00;;;1.60;;
23732;SDS011;12047;53.450;-2.286;2022-10-16T05:33:26;5.10;;;1.30;;
23732;SDS011;12047;53.450;-2.286;2022-10-16T05:38:27;6.20;;;1.20;;
23732;SDS011;12047;53.450;-2.286;2022-10-16T05:43:28;6.38;;;1.02;;
23732;SDS011;12047;53.450;-2.286;2022-10-16T05:48:31;6.13;;;1.30;;
23732;SDS011;12047;53.450;-2.286;2022-10-16T05:53:33;4.90;;;1.13;;
23732;SDS011;12047;53.450;-2.286;2022-10-16T05:58:35;7.68;;;1.17;;
23732;SDS011;12047;53.450;-2.286;2022-10-16T06:03:37;4.53;;;1.05;;
23732;SDS011;12047;53.450;-2.286;2022-10-16T06:08:37;7.50;;;1.75;;
23732;SDS011;12047;53.450;-2.286;2022-10-16T06:13:39;4.93;;;1.13;;
23732;SDS011;12047;53.450;-2.286;2022-10-16T06:18:42;3.83;;;1.25;;
23732;SDS011;12047;53.450;-2.286;2022-10-16T06:23:42;7.55;;;1.20;;
23732;SDS011;12047;53.450;-2.286;2022-10-16T06:28:43;9.30;;;1.20;;
23732;SDS011;12047;53.450;-2.286;2022-10-16T06:33:43;4.90;;;1.08;;
23732;SDS011;12047;53.450;-2.286;2022-10-16T06:38:45;5.43;;;1.63;;
23732;SDS011;12047;53.450;-2.286;2022-10-16T06:43:47;3.70;;;1.10;;
23732;SDS011;12047;53.450;-2.286;2022-10-16T06:48:48;4.00;;;1.00;;
23732;SDS011;12047;53.450;-2.286;2022-10-16T06:53:49;4.93;;;1.00;;
23732;SDS011;12047;53.450;-2.286;2022-10-16T06:58:52;8.27;;;1.10;;
23732;SDS011;12047;53.450;-2.286;2022-10-16T07:03:54;6.75;;;1.55;;
23732;SDS011;12047;53.450;-2.286;2022-10-16T07:08:54;8.65;;;1.17;;
23732;SDS011;12047;53.450;-2.286;2022-10-16T07:13:55;5.50;;;1.10;;
23732;SDS011;12047;53.450;-2.286;2022-10-16T07:18:56;4.75;;;1.20;;
23732;SDS011;12047;53.450;-2.286;2022-10-16T07:23:59;9.20;;;1.67;;
23732;SDS011;12047;53.450;-2.286;2022-10-16T07:29:01;5.30;;;0.95;;
23732;SDS011;12047;53.450;-2.286;2022-10-16T07:34:01;4.00;;;1.10;;
23732;SDS011;12047;53.450;-2.286;2022-10-16T07:39:02;7.82;;;1.50;;
23732;SDS011;12047;53.450;-2.286;2022-10-16T07:44:04;7.60;;;1.38;;
23732;SDS011;12047;53.450;-2.286;2022-10-16T07:49:04;7.10;;;1.10;;
23732;SDS011;12047;53.450;-2.286;2022-10-16T07:54:05;3.80;;;1.08;;
23732;SDS011;12047;53.450;-2.286;2022-10-16T07:59:05;7.18;;;1.38;;
23732;SDS011;12047;53.450;-2.286;2022-10-16T08:04:07;7.38;;;1.27;;
23732;SDS011;12047;53.450;-2.286;2022-10-16T08:09:08;4.43;;;0.90;;
23732;SDS011;12047;53.450;-2.286;2022-10-16T08:14:12;7.22;;;1.08;;
23732;SDS011;12047;53.450;-2.286;2022-10-16T08:19:13;4.65;;;1.13;;
23732;SDS011;12047;53.450;-2.286;2022-10-16T08:24:15;7.68;;;1.23;;
23732;SDS011;12047;53.450;-2.286;2022-10-16T08:29:16;5.28;;;1.40;;
23732;SDS011;12047;53.450;-2.286;2022-10-16T08:34:16;6.82;;;1.27;;
23732;SDS011;12047;53.450;-2.286;2022-10-16T08:39:16;6.80;;;1.00;;
23732;SDS011;12047;53.450;-2.286;2022-10-16T08:49:33;3.92;;;1.05;;
23732;SDS011;12047;53.450;-2.286;2022-10-16T08:54:41;7.43;;;1.25;;
23732;SDS011;12047;53.450;-2.286;2022-10-16T08:59:43;5.05;;;0.80;;
23732;SDS011;12047;53.450;-2.286;2022-10-16T09:04:47;3.42;;;0.80;;
23732;SDS011;12047;53.450;-2.286;2022-10-16T09:21:01;3.67;;;0.93;;
23732;SDS011;12047;53.450;-2.286;2022-10-16T09:26:08;9.52;;;2.83;;
23732;SDS011;12047;53.450;-2.286;2022-10-16T09:31:18;7.55;;;1.25;;
23732;SDS011;12047;53.450;-2.286;2022-10-16T09:36:20;7.45;;;1.30;;
23732;SDS011;12047;53.450;-2.286;2022-10-16T09:41:23;5.15;;;0.90;;
23732;SDS011;12047;53.450;-2.286;2022-10-16T09:51:36;7.85;;;1.05;;
23732;SDS011;12047;53.450;-2.286;2022-10-16T09:56:37;5.88;;;1.10;;
23732;SDS011;12047;53.450;-2.286;2022-10-16T10:01:55;5.53;;;0.93;;
23732;SDS011;12047;53.450;-2.286;2022-10-16T10:06:56;5.97;;;1.02;;
23732;SDS011;12047;53.450;-2.286;2022-10-16T10:12:00;3.35;;;1.20;;
23732;SDS011;12047;53.450;-2.286;2022-10-16T10:22:17;4.60;;;1.00;;
23732;SDS011;12047;53.450;-2.286;2022-10-16T10:49:05;6.03;;;1.23;;
23732;SDS011;12047;53.450;-2.286;2022-10-16T10:59:40;6.22;;;1.20;;
23732;SDS011;12047;53.450;-2.286;2022-10-16T11:09:56;4.90;;;0.90;;
23732;SDS011;12047;53.450;-2.286;2022-10-16T11:15:03;4.65;;;1.10;;
23732;SDS011;12047;53.450;-2.286;2022-10-16T11:20:16;7.93;;;0.93;;
23732;SDS011;12047;53.450;-2.286;2022-10-16T11:25:27;5.40;;;1.05;;
23732;SDS011;12047;53.450;-2.286;2022-10-16T11:30:32;17.80;;;9.40;;
23732;SDS011;12047;53.450;-2.286;2022-10-16T11:35:59;3.97;;;1.33;;
23732;SDS011;12047;53.450;-2.286;2022-10-16T11:46:21;6.25;;;1.10;;
23732;SDS011;12047;53.450;-2.286;2022-10-16T11:51:32;4.60;;;0.80;;
23732;SDS011;12047;53.450;-2.286;2022-10-16T11:56:37;3.25;;;0.60;;
23732;SDS011;12047;53.450;-2.286;2022-10-16T12:01:47;4.97;;;1.10;;
23732;SDS011;12047;53.450;-2.286;2022-10-16T12:06:55;2.38;;;0.70;;
23732;SDS011;12047;53.450;-2.286;2022-10-16T12:17:02;4.30;;;0.90;;
23732;SDS011;12047;53.450;-2.286;2022-10-16T12:22:23;4.93;;;0.85;;
23732;SDS011;12047;53.450;-2.286;2022-10-16T12:27:30;2.97;;;0.70;;
23732;SDS011;12047;53.450;-2.286;2022-10-16T12:32:36;3.95;;;0.82;;
23732;SDS011;12047;53.450;-2.286;2022-10-16T12:37:39;6.32;;;0.93;;
23732;SDS011;12047;53.450;-2.286;2022-10-16T12:42:40;3.60;;;0.90;;
23732;SDS011;12047;53.450;-2.286;2022-10-16T12:47:48;7.53;;;1.30;;
23732;SDS011;12047;53.450;-2.286;2022-10-16T12:52:49;2.65;;;0.88;;
23732;SDS011;12047;53.450;-2.286;2022-10-16T12:58:00;3.25;;;0.60;;
23732;SDS011;12047;53.450;-2.286;2022-10-16T13:30:34;6.35;;;0.95;;
23732;SDS011;12047;53.450;-2.286;2022-10-16T13:47:05;3.83;;;0.80;;
23732;SDS011;12047;53.450;-2.286;2022-10-16T13:52:05;4.40;;;0.80;;
23732;SDS011;12047;53.450;-2.286;2022-10-16T13:57:17;5.03;;;1.00;;
23732;SDS011;12047;53.450;-2.286;2022-10-16T14:13:15;6.30;;;0.85;;
23732;SDS011;12047;53.450;-2.286;2022-10-16T14:18:23;3.80;;;1.00;;
23732;SDS011;12047;53.450;-2.286;2022-10-16T14:23:30;6.90;;;1.15;;
23732;SDS011;12047;53.450;-2.286;2022-10-16T14:28:39;3.42;;;1.08;;
23732;SDS011;12047;53.450;-2.286;2022-10-16T14:33:40;8.20;;;1.33;;
23732;SDS011;12047;53.450;-2.286;2022-10-16T14:38:49;5.95;;;1.10;;
23732;SDS011;12047;53.450;-2.286;2022-10-16T14:44:00;6.43;;;1.30;;
23732;SDS011;12047;53.450;-2.286;2022-10-16T14:49:14;5.45;;;1.27;;
23732;SDS011;12047;53.450;-2.286;2022-10-16T14:54:20;5.38;;;1.50;;
23732;SDS011;12047;53.450;-2.286;2022-10-16T14:59:37;4.65;;;1.17;;
23732;SDS011;12047;53.450;-2.286;2022-10-16T15:04:43;6.72;;;1.25;;
23732;SDS011;12047;53.450;-2.286;2022-10-16T15:09:46;6.38;;;1.60;;
23732;SDS011;12047;53.450;-2.286;2022-10-16T15:14:47;7.43;;;1.40;;
23732;SDS011;12047;53.450;-2.286;2022-10-16T15:19:48;6.32;;;1.90;;
23732;SDS011;12047;53.450;-2.286;2022-10-16T15:24:48;5.00;;;1.83;;
23732;SDS011;12047;53.450;-2.286;2022-10-16T15:29:49;5.32;;;1.60;;
23732;SDS011;12047;53.450;-2.286;2022-10-16T15:34:50;4.38;;;1.55;;
23732;SDS011;12047;53.450;-2.286;2022-10-16T15:39:51;8.35;;;2.33;;
23732;SDS011;12047;53.450;-2.286;2022-10-16T15:44:51;9.70;;;1.90;;
23732;SDS011;12047;53.450;-2.286;2022-10-16T15:49:52;3.75;;;1.50;;
23732;SDS011;12047;53.450;-2.286;2022-10-16T15:54:52;9.07;;;1.73;;
23732;SDS011;12047;53.450;-2.286;2022-10-16T15:59:53;7.47;;;2.25;;
23732;SDS011;12047;53.450;-2.286;2022-10-16T16:04:54;7.40;;;2.15;;
23732;SDS011;12047;53.450;-2.286;2022-10-16T16:09:55;10.10;;;1.88;;
23732;SDS011;12047;53.450;-2.286;2022-10-16T16:14:55;10.45;;;2.42;;
23732;SDS011;12047;53.450;-2.286;2022-10-16T16:19:56;5.10;;;1.63;;
23732;SDS011;12047;53.450;-2.286;2022-10-16T16:24:57;5.78;;;1.90;;
23732;SDS011;12047;53.450;-2.286;2022-10-16T16:29:58;7.45;;;1.77;;
23732;SDS011;12047;53.450;-2.286;2022-10-16T16:34:59;10.68;;;2.70;;
23732;SDS011;12047;53.450;-2.286;2022-10-16T16:40:02;7.55;;;2.47;;
23732;SDS011;12047;53.450;-2.286;2022-10-16T16:45:12;10.27;;;3.47;;
23732;SDS011;12047;53.450;-2.286;2022-10-16T16:50:12;10.63;;;4.15;;
23732;SDS011;12047;53.450;-2.286;2022-10-16T16:55:13;4.63;;;2.28;;
23732;SDS011;12047;53.450;-2.286;2022-10-16T17:00:14;7.57;;;2.65;;
23732;SDS011;12047;53.450;-2.286;2022-10-16T17:05:15;6.50;;;2.28;;
23732;SDS011;12047;53.450;-2.286;2022-10-16T17:10:16;5.85;;;2.47;;
23732;SDS011;12047;53.450;-2.286;2022-10-16T17:15:17;7.30;;;2.67;;
23732;SDS011;12047;53.450;-2.286;2022-10-16T17:20:18;9.60;;;3.10;;
23732;SDS011;12047;53.450;-2.286;2022-10-16T17:25:19;8.68;;;2.58;;
23732;SDS011;12047;53.450;-2.286;2022-10-16T17:30:20;6.90;;;2.60;;
23732;SDS011;12047;53.450;-2.286;2022-10-16T17:35:23;9.68;;;2.95;;
23732;SDS011;12047;53.450;-2.286;2022-10-16T17:40:26;7.13;;;3.00;;
23732;SDS011;12047;53.450;-2.286;2022-10-16T17:45:27;8.93;;;2.72;;
23732;SDS011;12047;53.450;-2.286;2022-10-16T17:50:38;6.47;;;2.35;;
23732;SDS011;12047;53.450;-2.286;2022-10-16T17:55:43;12.23;;;3.83;;
23732;SDS011;12047;53.450;-2.286;2022-10-16T18:00:43;7.30;;;3.42;;
23732;SDS011;12047;53.450;-2.286;2022-10-16T18:05:46;8.02;;;2.72;;
23732;SDS011;12047;53.450;-2.286;2022-10-16T18:10:48;6.38;;;2.85;;
23732;SDS011;12047;53.450;-2.286;2022-10-16T18:16:11;8.80;;;3.35;;
23732;SDS011;12047;53.450;-2.286;2022-10-16T18:21:12;10.93;;;2.53;;
23732;SDS011;12047;53.450;-2.286;2022-10-16T18:26:15;5.00;;;2.08;;
23732;SDS011;12047;53.450;-2.286;2022-10-16T18:31:16;10.63;;;2.17;;
23732;SDS011;12047;53.450;-2.286;2022-10-16T18:36:18;9.07;;;2.60;;
23732;SDS011;12047;53.450;-2.286;2022-10-16T18:41:28;8.00;;;1.88;;
23732;SDS011;12047;53.450;-2.286;2022-10-16T18:46:31;6.40;;;2.03;;
23732;SDS011;12047;53.450;-2.286;2022-10-16T18:51:33;5.18;;;2.20;;
23732;SDS011;12047;53.450;-2.286;2022-10-16T18:56:44;7.85;;;1.98;;
23732;SDS011;12047;53.450;-2.286;2022-10-16T19:01:45;9.10;;;2.22;;
23732;SDS011;12047;53.450;-2.286;2022-10-16T19:06:47;7.43;;;1.90;;
23732;SDS011;12047;53.450;-2.286;2022-10-16T19:11:51;7.45;;;2.15;;
23732;SDS011;12047;53.450;-2.286;2022-10-16T19:16:52;8.23;;;2.42;;
23732;SDS011;12047;53.450;-2.286;2022-10-16T19:21:52;7.00;;;2.75;;
23732;SDS011;12047;53.450;-2.286;2022-10-16T19:27:10;6.72;;;2.63;;
23732;SDS011;12047;53.450;-2.286;2022-10-16T19:32:14;8.90;;;3.03;;
23732;SDS011;12047;53.450;-2.286;2022-10-16T19:37:14;8.90;;;2.90;;
23732;SDS011;12047;53.450;-2.286;2022-10-16T19:42:15;10.50;;;2.80;;
23732;SDS011;12047;53.450;-2.286;2022-10-16T19:47:15;10.52;;;2.30;;
23732;SDS011;12047;53.450;-2.286;2022-10-16T19:52:16;8.23;;;2.50;;
23732;SDS011;12047;53.450;-2.286;2022-10-16T19:57:16;8.10;;;2.83;;
23732;SDS011;12047;53.450;-2.286;2022-10-16T20:02:17;12.90;;;3.28;;
23732;SDS011;12047;53.450;-2.286;2022-10-16T20:07:18;16.67;;;3.63;;
23732;SDS011;12047;53.450;-2.286;2022-10-16T20:12:20;11.98;;;2.90;;
23732;SDS011;12047;53.450;-2.286;2022-10-16T20:17:20;15.68;;;2.45;;
23732;SDS011;12047;53.450;-2.286;2022-10-16T20:22:21;13.50;;;2.67;;
23732;SDS011;12047;53.450;-2.286;2022-10-16T20:27:22;15.80;;;3.22;;
23732;SDS011;12047;53.450;-2.286;2022-10-16T20:32:24;10.25;;;2.35;;
23732;SDS011;12047;53.450;-2.286;2022-10-16T20:37:24;8.95;;;2.80;;
23732;SDS011;12047;53.450;-2.286;2022-10-16T20:42:25;12.73;;;2.63;;
23732;SDS011;12047;53.450;-2.286;2022-10-16T20:47:25;12.02;;;2.80;;
23732;SDS011;12047;53.450;-2.286;2022-10-16T20:52:26;17.17;;;3.80;;
23732;SDS011;12047;53.450;-2.286;2022-10-16T20:57:26;18.95;;;2.97;;
23732;SDS011;12047;53.450;-2.286;2022-10-16T21:02:27;21.23;;;3.22;;
23732;SDS011;12047;53.450;-2.286;2022-10-16T21:07:27;16.42;;;3.20;;
23732;SDS011;12047;53.450;-2.286;2022-10-16T21:12:28;12.57;;;3.05;;
23732;SDS011;12047;53.450;-2.286;2022-10-16T21:17:29;12.70;;;3.13;;
23732;SDS011;12047;53.450;-2.286;2022-10-16T21:22:30;13.10;;;2.83;;
23732;SDS011;12047;53.450;-2.286;2022-10-16T21:27:38;12.23;;;2.90;;
23732;SDS011;12047;53.450;-2.286;2022-10-16T21:32:39;13.88;;;3.10;;
23732;SDS011;12047;53.450;-2.286;2022-10-16T21:37:40;15.13;;;2.90;;
23732;SDS011;12047;53.450;-2.286;2022-10-16T21:42:41;14.15;;;2.65;;
23732;SDS011;12047;53.450;-2.286;2022-10-16T21:47:41;17.15;;;3.13;;
23732;SDS011;12047;53.450;-2.286;2022-10-16T21:52:42;10.40;;;3.00;;
23732;SDS011;12047;53.450;-2.286;2022-10-16T21:57:43;12.68;;;2.63;;
23732;SDS011;12047;53.450;-2.286;2022-10-16T22:02:44;12.85;;;2.72;;
23732;SDS011;12047;53.450;-2.286;2022-10-16T22:07:44;12.43;;;3.28;;
23732;SDS011;12047;53.450;-2.286;2022-10-16T22:12:45;8.63;;;3.33;;
23732;SDS011;12047;53.450;-2.286;2022-10-16T22:17:46;12.85;;;2.65;;
23732;SDS011;12047;53.450;-2.286;2022-10-16T22:22:46;11.30;;;3.22;;
23732;SDS011;12047;53.450;-2.286;2022-10-16T22:27:47;14.75;;;3.17;;
23732;SDS011;12047;53.450;-2.286;2022-10-16T22:32:47;11.73;;;2.85;;
23732;SDS011;12047;53.450;-2.286;2022-10-16T22:37:48;9.07;;;2.70;;
23732;SDS011;12047;53.450;-2.286;2022-10-16T22:42:48;8.93;;;2.60;;
23732;SDS011;12047;53.450;-2.286;2022-10-16T22:47:49;11.95;;;2.95;;
23732;SDS011;12047;53.450;-2.286;2022-10-16T22:52:49;10.30;;;2.92;;
23732;SDS011;12047;53.450;-2.286;2022-10-16T22:57:50;7.57;;;2.70;;
23732;SDS011;12047;53.450;-2.286;2022-10-16T23:02:50;7.15;;;2.45;;
23732;SDS011;12047;53.450;-2.286;2022-10-16T23:07:51;7.03;;;2.40;;
23732;SDS011;12047;53.450;-2.286;2022-10-16T23:12:52;7.13;;;2.00;;
23732;SDS011;12047;53.450;-2.286;2022-10-16T23:17:52;6.75;;;1.88;;
23732;SDS011;12047;53.450;-2.286;2022-10-16T23:22:53;5.72;;;1.85;;
23732;SDS011;12047;53.450;-2.286;2022-10-16T23:27:53;3.75;;;1.70;;
23732;SDS011;12047;53.450;-2.286;2022-10-16T23:32:54;4.40;;;2.25;;
23732;SDS011;12047;53.450;-2.286;2022-10-16T23:37:55;4.75;;;2.13;;
23732;SDS011;12047;53.450;-2.286;2022-10-16T23:43:00;3.00;;;1.80;;
23732;SDS011;12047;53.450;-2.286;2022-10-16T23:48:10;5.35;;;2.25;;
23732;SDS011;12047;53.450;-2.286;2022-10-16T23:53:10;4.45;;;1.80;;
23732;SDS011;12047;53.450;-2.286;2022-10-16T23:58:11;4.50;;;1.80;;
